createdAt,value
2023-02-02T00:04:55.206Z,14.27
2023-02-02T00:10:00.180Z,14.82
2023-02-02T00:15:06.672Z,11.98
2023-02-02T00:20:10.408Z,13.80
2023-02-02T00:30:38.571Z,15.68
2023-02-02T00:36:34.406Z,13.25
2023-02-02T00:41:36.922Z,14.90
2023-02-02T00:46:42.552Z,14.40
2023-02-02T00:51:49.043Z,13.02
2023-02-02T00:56:52.633Z,14.60
2023-02-02T01:01:56.139Z,13.95
2023-02-02T01:07:11.913Z,11.70
2023-02-02T01:12:47.836Z,11.15
2023-02-02T01:17:50.421Z,11.25
2023-02-02T01:22:54.211Z,12.80
2023-02-02T01:27:56.661Z,12.18
2023-02-02T01:32:59.158Z,15.32
2023-02-02T01:38:01.738Z,15.00
2023-02-02T01:43:26.170Z,14.00
2023-02-02T01:48:33.158Z,18.92
2023-02-02T01:53:40.615Z,14.65
2023-02-02T01:58:53.171Z,6.73
2023-02-02T02:03:59.782Z,14.48
2023-02-02T02:09:11.372Z,15.85
2023-02-02T02:14:34.770Z,13.35
2023-02-02T02:20:48.974Z,18.45
2023-02-02T02:26:39.806Z,13.57
2023-02-02T02:32:19.409Z,15.13
2023-02-02T02:37:58.607Z,11.95
2023-02-02T02:43:20.864Z,17.00
2023-02-02T02:48:46.000Z,10.18
2023-02-02T02:53:51.880Z,11.05
2023-02-02T02:59:36.546Z,16.80
2023-02-02T03:04:51.973Z,11.02
2023-02-02T03:09:59.217Z,12.10
2023-02-02T03:15:06.010Z,14.82
2023-02-02T03:20:09.708Z,12.98
2023-02-02T03:25:12.187Z,10.95
2023-02-02T03:30:14.902Z,9.70
2023-02-02T03:35:17.592Z,16.80
2023-02-02T03:40:22.132Z,8.98
2023-02-02T03:45:30.242Z,9.35
2023-02-02T03:50:33.060Z,8.85
2023-02-02T03:55:35.553Z,10.23
2023-02-02T04:00:42.419Z,12.30
2023-02-02T04:05:49.910Z,9.23
2023-02-02T04:11:08.071Z,8.88
2023-02-02T04:16:15.453Z,7.40
2023-02-02T04:21:19.079Z,9.48
2023-02-02T04:26:21.490Z,10.10
2023-02-02T04:31:30.030Z,20.75
2023-02-02T04:36:32.379Z,15.68
2023-02-02T04:41:35.153Z,10.15
2023-02-02T04:46:37.432Z,12.23
2023-02-02T04:51:40.696Z,10.02
2023-02-02T04:56:43.056Z,15.30
2023-02-02T05:01:58.779Z,13.18
2023-02-02T05:07:25.140Z,11.27
2023-02-02T05:12:39.142Z,16.33
2023-02-02T05:17:42.465Z,17.60
2023-02-02T05:22:51.203Z,10.23
2023-02-02T05:27:54.591Z,16.50
2023-02-02T05:45:38.561Z,31.30
2023-02-02T05:51:23.234Z,29.88
2023-02-02T05:57:21.432Z,28.55
2023-02-02T06:09:09.064Z,14.27
2023-02-02T06:15:50.410Z,42.70
2023-02-02T06:26:23.226Z,16.27
2023-02-02T06:31:27.204Z,12.95
2023-02-02T06:36:29.803Z,18.45
2023-02-02T06:41:32.592Z,15.50
2023-02-02T06:47:50.062Z,10.80
2023-02-02T06:53:12.776Z,7.28
2023-02-02T06:58:38.186Z,24.30
2023-02-02T07:03:43.838Z,10.82
2023-02-02T07:09:00.938Z,11.10
2023-02-02T07:14:05.565Z,22.17
2023-02-02T07:31:55.526Z,5.68
2023-02-02T08:15:15.225Z,8.15
2023-02-02T08:20:17.863Z,10.45
2023-02-02T08:25:21.951Z,10.32
2023-02-02T08:56:18.679Z,8.10
2023-02-02T09:02:28.969Z,11.82
2023-02-02T09:13:31.790Z,4.68
2023-02-02T09:18:58.104Z,7.38
2023-02-02T09:31:05.587Z,5.22
2023-02-02T10:02:23.283Z,24.20
2023-02-02T10:46:15.913Z,34.80
2023-02-02T10:51:24.825Z,25.33
2023-02-02T10:56:38.895Z,11.65
2023-02-02T11:01:43.327Z,5.32
2023-02-02T11:06:52.200Z,5.60
2023-02-02T11:12:01.474Z,14.57
2023-02-02T11:17:05.601Z,14.45
2023-02-02T11:22:25.416Z,14.10
2023-02-02T11:27:31.721Z,13.15
2023-02-02T11:32:34.936Z,46.00
2023-02-02T11:37:38.820Z,29.10
2023-02-02T11:42:47.141Z,16.70
2023-02-02T11:47:51.000Z,24.02
2023-02-02T11:52:55.726Z,104.85
2023-02-02T11:58:19.807Z,22.98
2023-02-02T12:03:38.616Z,19.30
2023-02-02T12:08:41.014Z,63.78
2023-02-02T12:13:52.225Z,95.82
2023-02-02T12:18:57.506Z,99.25
2023-02-02T12:24:17.146Z,39.53
2023-02-02T12:29:40.688Z,38.88
2023-02-02T12:34:53.108Z,26.33
2023-02-02T12:40:40.223Z,34.70
2023-02-02T12:45:46.767Z,13.98
2023-02-02T12:51:14.789Z,8.60
2023-02-02T12:56:51.980Z,21.55
2023-02-02T13:02:05.621Z,47.13
2023-02-02T13:07:39.228Z,9.40
2023-02-02T13:12:45.553Z,35.53
2023-02-02T13:17:59.449Z,13.48
2023-02-02T13:33:17.752Z,41.92
2023-02-02T13:38:30.596Z,7.18
2023-02-02T13:43:45.643Z,43.38
2023-02-02T13:48:58.598Z,12.57
2023-02-02T13:54:22.794Z,6.57
2023-02-02T13:59:45.935Z,11.10
2023-02-02T14:04:56.935Z,15.27
2023-02-02T14:09:59.520Z,13.50
2023-02-02T14:15:02.197Z,12.98
2023-02-02T14:20:08.881Z,6.83
2023-02-02T14:25:29.479Z,18.83
2023-02-02T14:30:34.816Z,34.55
2023-02-02T14:35:46.401Z,14.60
2023-02-02T14:40:57.318Z,8.02
2023-02-02T14:46:14.979Z,33.38
2023-02-02T14:51:27.066Z,26.17
2023-02-02T14:56:52.103Z,6.45
2023-02-02T15:02:01.021Z,9.75
2023-02-02T15:07:25.427Z,6.07
2023-02-02T15:12:34.180Z,19.98
2023-02-02T15:17:44.525Z,8.48
2023-02-02T15:23:19.417Z,5.20
2023-02-02T15:28:52.172Z,26.00
2023-02-02T15:33:59.857Z,7.45
2023-02-02T15:39:08.739Z,17.00
2023-02-02T15:44:23.341Z,19.08
2023-02-02T15:49:34.636Z,8.63
2023-02-02T15:54:38.946Z,18.43
2023-02-02T15:59:41.532Z,35.60
2023-02-02T16:04:44.080Z,28.75
2023-02-02T16:09:49.471Z,10.73
2023-02-02T16:14:54.639Z,24.73
2023-02-02T16:20:14.977Z,46.90
2023-02-02T16:25:19.836Z,33.85
2023-02-02T16:30:29.787Z,23.63
2023-02-02T16:35:37.715Z,10.93
2023-02-02T16:40:41.527Z,14.90
2023-02-02T16:51:02.533Z,31.77
2023-02-02T16:56:05.858Z,100.60
2023-02-02T17:01:15.892Z,47.13
2023-02-02T17:06:28.416Z,15.55
2023-02-02T17:11:31.191Z,21.83
2023-02-02T17:16:33.717Z,16.27
2023-02-02T17:21:36.087Z,38.72
2023-02-02T17:26:38.455Z,41.15
2023-02-02T17:31:41.476Z,36.53
2023-02-02T17:36:44.432Z,21.77
2023-02-02T17:41:47.539Z,24.83
2023-02-02T17:46:50.266Z,21.23
2023-02-02T17:51:52.701Z,24.13
2023-02-02T17:56:55.204Z,19.27
2023-02-02T18:01:57.898Z,18.85
2023-02-02T18:07:00.178Z,28.73
2023-02-02T18:12:02.582Z,38.75
2023-02-02T18:17:05.102Z,66.35
2023-02-02T18:22:07.584Z,82.10
2023-02-02T18:27:09.901Z,57.92
2023-02-02T18:32:15.232Z,56.85
2023-02-02T18:37:18.292Z,61.05
2023-02-02T18:42:20.831Z,43.15
2023-02-02T18:47:23.607Z,50.85
2023-02-02T18:52:26.161Z,38.67
2023-02-02T18:57:31.378Z,29.30
2023-02-02T19:02:36.736Z,25.38
2023-02-02T19:07:55.674Z,54.15
2023-02-02T19:13:08.899Z,162.65
2023-02-02T19:18:17.376Z,104.15
2023-02-02T19:23:23.880Z,135.50
2023-02-02T19:28:31.125Z,206.55
2023-02-02T19:33:49.727Z,129.35
2023-02-02T19:38:56.513Z,71.70
2023-02-02T19:44:01.884Z,55.95
2023-02-02T19:49:12.085Z,60.35
2023-02-02T19:54:38.469Z,122.20
2023-02-02T19:59:45.981Z,171.60
2023-02-02T20:05:05.418Z,141.88
2023-02-02T20:10:19.585Z,170.70
2023-02-02T20:15:29.526Z,157.05
2023-02-02T20:20:53.017Z,84.95
2023-02-02T20:25:56.365Z,134.52
2023-02-02T20:30:58.776Z,266.95
2023-02-02T20:36:29.547Z,269.55
2023-02-02T20:41:32.188Z,243.52
2023-02-02T20:46:34.732Z,214.03
2023-02-02T20:51:40.692Z,168.68
2023-02-02T20:56:43.051Z,178.75
2023-02-02T21:07:02.800Z,93.60
2023-02-02T21:12:06.001Z,75.68
2023-02-02T21:22:25.121Z,102.72
2023-02-02T21:27:27.652Z,57.15
2023-02-02T21:32:30.159Z,81.22
2023-02-02T21:37:35.170Z,114.63
2023-02-02T21:48:20.153Z,145.25
2023-02-02T21:53:24.918Z,127.40
2023-02-02T21:58:33.318Z,78.30
2023-02-02T22:03:38.341Z,153.20
2023-02-02T22:08:41.195Z,113.35
2023-02-02T22:13:43.542Z,73.63
2023-02-02T22:18:46.244Z,101.38
2023-02-02T22:23:48.795Z,140.70
2023-02-02T22:28:51.208Z,104.55
2023-02-02T22:33:53.673Z,66.80
2023-02-02T22:38:56.038Z,46.05
2023-02-02T22:43:58.403Z,46.35
2023-02-02T22:49:01.601Z,45.67
2023-02-02T22:54:04.036Z,49.28
2023-02-02T22:59:08.229Z,57.23
2023-02-02T23:04:10.846Z,50.78
2023-02-02T23:09:13.338Z,53.05
2023-02-02T23:14:15.673Z,58.80
2023-02-02T23:19:18.127Z,88.22
2023-02-02T23:24:20.626Z,59.78
2023-02-02T23:29:23.161Z,41.42
2023-02-02T23:34:25.625Z,45.47
2023-02-02T23:39:28.034Z,28.73
2023-02-02T23:44:30.383Z,30.77
2023-02-02T23:49:33.405Z,29.55
2023-02-02T23:54:36.382Z,28.20
2023-02-02T23:59:38.848Z,33.17
